sensor_id;sensor_type;location;lat;lon;timestamp;pressure;altitude;pressure_sealevel;temperature;humidity
5238;BME280;2639;49.700;7.962;2023-02-10T04:04:05;100799.59;;;-4.73;99.91
5238;BME280;2639;49.700;7.962;2023-02-10T04:07:15;100807.59;;;-4.70;100.00
5238;BME280;2639;49.700;7.962;2023-02-10T04:10:25;100815.06;;;-4.60;100.00
5238;BME280;2639;49.700;7.962;2023-02-10T04:13:35;100817.75;;;-4.49;100.00
5238;BME280;2639;49.700;7.962;2023-02-10T04:16:45;100816.63;;;-4.35;100.00
5238;BME280;2639;49.700;7.962;2023-02-10T04:19:56;100817.69;;;-4.39;99.91
5238;BME280;2639;49.700;7.962;2023-02-10T04:23:06;100822.91;;;-4.28;100.00
5238;BME280;2639;49.700;7.962;2023-02-10T04:26:15;100824.75;;;-4.27;100.00
5238;BME280;2639;49.700;7.962;2023-02-10T04:29:25;100818.22;;;-4.20;100.00
5238;BME280;2639;49.700;7.962;2023-02-10T04:32:35;100818.88;;;-4.06;100.00
5238;BME280;2639;49.700;7.962;2023-02-10T04:35:48;100823.16;;;-3.95;100.00
5238;BME280;2639;49.700;7.962;2023-02-10T04:38:58;100826.53;;;-3.85;100.00
5238;BME280;2639;49.700;7.962;2023-02-10T04:42:07;100826.94;;;-3.72;100.00
5238;BME280;2639;49.700;7.962;2023-02-10T04:45:17;100828.00;;;-3.61;100.00
5238;BME280;2639;49.700;7.962;2023-02-10T04:48:26;100832.38;;;-3.60;100.00
5238;BME280;2639;49.700;7.962;2023-02-10T04:51:37;100840.88;;;-3.53;100.00
5238;BME280;2639;49.700;7.962;2023-02-10T04:54:47;100838.19;;;-3.49;100.00
5238;BME280;2639;49.700;7.962;2023-02-10T04:57:57;100838.69;;;-3.46;100.00
5238;BME280;2639;49.700;7.962;2023-02-10T05:01:07;100844.34;;;-3.32;100.00
5238;BME280;2639;49.700;7.962;2023-02-10T05:04:16;100835.88;;;-3.17;100.00
5238;BME280;2639;49.700;7.962;2023-02-10T05:07:27;100845.63;;;-3.03;100.00
5238;BME280;2639;49.700;7.962;2023-02-10T05:10:37;100844.06;;;-2.97;100.00
5238;BME280;2639;49.700;7.962;2023-02-10T05:13:47;100841.22;;;-2.89;100.00
5238;BME280;2639;49.700;7.962;2023-02-10T05:16:56;100850.66;;;-2.82;100.00
5238;BME280;2639;49.700;7.962;2023-02-10T05:20:07;100858.06;;;-2.72;100.00
5238;BME280;2639;49.700;7.962;2023-02-10T05:23:18;100864.25;;;-2.70;99.92
5238;BME280;2639;49.700;7.962;2023-02-10T05:26:27;100863.84;;;-2.68;100.00
5238;BME280;2639;49.700;7.962;2023-02-10T05:29:37;100863.19;;;-2.67;100.00
5238;BME280;2639;49.700;7.962;2023-02-10T05:32:47;100865.03;;;-2.60;100.00
5238;BME280;2639;49.700;7.962;2023-02-10T05:35:56;100862.16;;;-2.52;100.00
5238;BME280;2639;49.700;7.962;2023-02-10T05:39:07;100867.75;;;-2.43;100.00
5238;BME280;2639;49.700;7.962;2023-02-10T05:42:31;100864.63;;;-2.37;99.75
5238;BME280;2639;49.700;7.962;2023-02-10T05:45:40;100866.06;;;-2.27;99.69
5238;BME280;2639;49.700;7.962;2023-02-10T05:48:51;100862.00;;;-2.21;99.89
5238;BME280;2639;49.700;7.962;2023-02-10T05:52:00;100855.41;;;-2.15;99.78
5238;BME280;2639;49.700;7.962;2023-02-10T05:55:11;100855.88;;;-2.12;99.22
5238;BME280;2639;49.700;7.962;2023-02-10T05:58:21;100848.34;;;-2.12;99.03
5238;BME280;2639;49.700;7.962;2023-02-10T07:57:18;100882.50;;;-2.03;96.16
5238;BME280;2639;49.700;7.962;2023-02-10T08:00:27;100888.31;;;-1.93;96.22
5238;BME280;2639;49.700;7.962;2023-02-10T08:03:37;100887.91;;;-1.84;96.37
5238;BME280;2639;49.700;7.962;2023-02-10T08:06:47;100894.84;;;-1.78;95.69
5238;BME280;2639;49.700;7.962;2023-02-10T08:09:57;100893.03;;;-1.73;96.03
5238;BME280;2639;49.700;7.962;2023-02-10T08:13:08;100896.81;;;-1.60;95.57
5238;BME280;2639;49.700;7.962;2023-02-10T08:16:17;100898.28;;;-1.39;95.64
5238;BME280;2639;49.700;7.962;2023-02-10T08:19:27;100893.88;;;-1.14;94.66
5238;BME280;2639;49.700;7.962;2023-02-10T08:22:37;100896.72;;;-0.84;95.28
5238;BME280;2639;49.700;7.962;2023-02-10T08:25:47;100897.03;;;-0.54;95.28
5238;BME280;2639;49.700;7.962;2023-02-10T08:29:00;100896.19;;;-0.27;95.26
5238;BME280;2639;49.700;7.962;2023-02-10T08:32:10;100897.34;;;-0.02;94.77
5238;BME280;2639;49.700;7.962;2023-02-10T08:35:21;100895.50;;;0.19;94.27
5238;BME280;2639;49.700;7.962;2023-02-10T08:38:30;100901.94;;;0.40;93.11
5238;BME280;2639;49.700;7.962;2023-02-10T08:41:41;100900.97;;;0.56;92.18
5238;BME280;2639;49.700;7.962;2023-02-10T08:44:52;100901.88;;;0.68;91.78
5238;BME280;2639;49.700;7.962;2023-02-10T08:48:01;100903.19;;;0.83;91.19
5238;BME280;2639;49.700;7.962;2023-02-10T08:51:12;100905.22;;;1.02;89.90
5238;BME280;2639;49.700;7.962;2023-02-10T08:54:22;100901.22;;;1.21;89.30
5238;BME280;2639;49.700;7.962;2023-02-10T08:57:32;100899.53;;;1.39;88.50
5238;BME280;2639;49.700;7.962;2023-02-10T09:00:42;100890.00;;;1.55;87.35
5238;BME280;2639;49.700;7.962;2023-02-10T09:03:52;100895.88;;;1.72;87.18
5238;BME280;2639;49.700;7.962;2023-02-10T09:07:02;100891.59;;;1.89;86.50
5238;BME280;2639;49.700;7.962;2023-02-10T09:10:13;100891.00;;;2.09;85.25
5238;BME280;2639;49.700;7.962;2023-02-10T09:13:23;100889.94;;;2.25;83.93
5238;BME280;2639;49.700;7.962;2023-02-10T09:16:35;100896.63;;;2.49;83.13
5238;BME280;2639;49.700;7.962;2023-02-10T09:19:45;100892.75;;;2.69;82.77
5238;BME280;2639;49.700;7.962;2023-02-10T09:22:55;100901.78;;;2.86;83.05
5238;BME280;2639;49.700;7.962;2023-02-10T09:26:04;100901.50;;;3.08;83.07
5238;BME280;2639;49.700;7.962;2023-02-10T09:29:14;100895.78;;;3.22;82.45
5238;BME280;2639;49.700;7.962;2023-02-10T09:32:25;100901.63;;;3.34;81.45
5238;BME280;2639;49.700;7.962;2023-02-10T09:35:37;100897.13;;;3.44;80.96
5238;BME280;2639;49.700;7.962;2023-02-10T09:38:46;100901.34;;;3.56;80.31
5238;BME280;2639;49.700;7.962;2023-02-10T09:42:03;100898.06;;;3.76;79.42
5238;BME280;2639;49.700;7.962;2023-02-10T09:45:18;100901.47;;;3.95;78.58
5238;BME280;2639;49.700;7.962;2023-02-10T09:48:35;100900.19;;;4.17;76.98
5238;BME280;2639;49.700;7.962;2023-02-10T09:51:53;100895.94;;;4.49;76.35
5238;BME280;2639;49.700;7.962;2023-02-10T09:55:13;100895.31;;;4.95;75.03
5238;BME280;2639;49.700;7.962;2023-02-10T09:58:31;100890.31;;;5.35;74.14
5238;BME280;2639;49.700;7.962;2023-02-10T10:01:43;100896.22;;;5.81;72.36
5238;BME280;2639;49.700;7.962;2023-02-10T10:04:56;100893.22;;;6.38;70.86
5238;BME280;2639;49.700;7.962;2023-02-10T10:08:16;100887.56;;;7.02;69.28
5238;BME280;2639;49.700;7.962;2023-02-10T10:11:36;100895.00;;;7.56;67.16
5238;BME280;2639;49.700;7.962;2023-02-10T10:14:46;100889.75;;;7.98;66.20
5238;BME280;2639;49.700;7.962;2023-02-10T10:18:02;100890.47;;;8.26;63.78
5238;BME280;2639;49.700;7.962;2023-02-10T10:21:21;100887.03;;;8.11;61.18
5238;BME280;2639;49.700;7.962;2023-02-10T10:24:46;100891.59;;;7.99;62.39
5238;BME280;2639;49.700;7.962;2023-02-10T10:28:04;100884.81;;;8.28;62.01
5238;BME280;2639;49.700;7.962;2023-02-10T10:31:21;100877.28;;;8.73;61.18
5238;BME280;2639;49.700;7.962;2023-02-10T10:34:36;100874.19;;;9.13;59.25
5238;BME280;2639;49.700;7.962;2023-02-10T10:37:50;100874.28;;;9.59;58.00
5238;BME280;2639;49.700;7.962;2023-02-10T10:41:02;100870.53;;;9.94;56.39
5238;BME280;2639;49.700;7.962;2023-02-10T10:44:16;100864.28;;;10.15;55.63
5238;BME280;2639;49.700;7.962;2023-02-10T10:47:35;100852.63;;;10.49;56.62
5238;BME280;2639;49.700;7.962;2023-02-10T10:50:46;100848.56;;;10.83;55.31
5238;BME280;2639;49.700;7.962;2023-02-10T10:53:57;100848.13;;;11.03;54.32
